sensor_id;sensor_type;location;lat;lon;timestamp;pressure;altitude;pressure_sealevel;temperature;humidity
7888;BME280;3989;48.810;9.208;2023-02-01T00:01:05;99485.53;;;3.90;100.00
7888;BME280;3989;48.810;9.208;2023-02-01T00:03:32;99491.88;;;3.99;100.00
7888;BME280;3989;48.810;9.208;2023-02-01T00:05:59;99412.31;;;3.48;100.00
7888;BME280;3989;48.810;9.208;2023-02-01T00:08:26;99496.09;;;3.90;100.00
7888;BME280;3989;48.810;9.208;2023-02-01T00:11:00;99502.94;;;4.04;100.00
7888;BME280;3989;48.810;9.208;2023-02-01T00:13:28;99493.94;;;4.06;100.00
7888;BME280;3989;48.810;9.208;2023-02-01T00:16:02;99497.16;;;4.10;100.00
7888;BME280;3989;48.810;9.208;2023-02-01T00:18:29;99482.63;;;4.04;100.00
7888;BME280;3989;48.810;9.208;2023-02-01T00:20:55;99476.97;;;3.98;100.00
7888;BME280;3989;48.810;9.208;2023-02-01T00:23:22;99484.44;;;4.04;100.00
7888;BME280;3989;48.810;9.208;2023-02-01T00:25:48;99472.06;;;3.93;100.00
7888;BME280;3989;48.810;9.208;2023-02-01T00:28:15;99483.47;;;4.05;100.00
7888;BME280;3989;48.810;9.208;2023-02-01T00:30:41;99473.63;;;4.07;100.00
7888;BME280;3989;48.810;9.208;2023-02-01T00:33:09;99482.63;;;4.04;100.00
7888;BME280;3989;48.810;9.208;2023-02-01T00:35:36;99460.19;;;3.88;100.00
7888;BME280;3989;48.810;9.208;2023-02-01T00:38:02;99436.28;;;3.78;100.00
7888;BME280;3989;48.810;9.208;2023-02-01T00:40:29;99469.56;;;4.03;100.00
7888;BME280;3989;48.810;9.208;2023-02-01T00:42:55;99438.22;;;3.87;100.00
7888;BME280;3989;48.810;9.208;2023-02-01T00:45:23;99438.94;;;3.89;100.00
7888;BME280;3989;48.810;9.208;2023-02-01T00:47:49;99447.69;;;4.01;100.00
7888;BME280;3989;48.810;9.208;2023-02-01T00:50:17;99464.97;;;4.16;100.00
7888;BME280;3989;48.810;9.208;2023-02-01T00:52:44;99463.03;;;4.18;100.00
7888;BME280;3989;48.810;9.208;2023-02-01T00:55:10;99445.41;;;4.07;100.00
7888;BME280;3989;48.810;9.208;2023-02-01T00:57:37;99462.94;;;4.19;100.00
7888;BME280;3989;48.810;9.208;2023-02-01T01:00:04;99457.06;;;4.16;100.00
7888;BME280;3989;48.810;9.208;2023-02-01T01:02:31;99439.50;;;4.15;100.00
7888;BME280;3989;48.810;9.208;2023-02-01T01:04:57;99454.38;;;4.27;100.00
7888;BME280;3989;48.810;9.208;2023-02-01T01:07:25;99452.84;;;4.24;100.00
7888;BME280;3989;48.810;9.208;2023-02-01T01:09:53;99428.09;;;4.14;100.00
7888;BME280;3989;48.810;9.208;2023-02-01T01:12:19;99438.66;;;4.14;100.00
7888;BME280;3989;48.810;9.208;2023-02-01T01:14:46;99429.56;;;4.07;100.00
7888;BME280;3989;48.810;9.208;2023-02-01T01:17:13;99417.09;;;3.98;100.00
7888;BME280;3989;48.810;9.208;2023-02-01T01:19:39;99427.78;;;3.97;100.00
7888;BME280;3989;48.810;9.208;2023-02-01T01:22:06;99418.06;;;3.86;100.00
7888;BME280;3989;48.810;9.208;2023-02-01T01:24:34;99428.28;;;3.91;100.00
7888;BME280;3989;48.810;9.208;2023-02-01T01:27:01;99396.38;;;3.72;100.00
7888;BME280;3989;48.810;9.208;2023-02-01T01:29:28;99430.66;;;3.94;100.00
7888;BME280;3989;48.810;9.208;2023-02-01T01:31:54;99439.31;;;3.96;100.00
7888;BME280;3989;48.810;9.208;2023-02-01T01:34:21;99377.53;;;3.54;100.00
7888;BME280;3989;48.810;9.208;2023-02-01T01:36:47;99436.31;;;4.00;100.00
7888;BME280;3989;48.810;9.208;2023-02-01T01:39:14;99449.13;;;4.05;100.00
7888;BME280;3989;48.810;9.208;2023-02-01T01:41:41;99449.97;;;4.05;100.00
7888;BME280;3989;48.810;9.208;2023-02-01T01:47:08;99439.31;;;4.07;100.00
7888;BME280;3989;48.810;9.208;2023-02-01T01:49:36;99444.34;;;4.10;100.00
7888;BME280;3989;48.810;9.208;2023-02-01T01:52:03;99421.41;;;3.99;100.00
7888;BME280;3989;48.810;9.208;2023-02-01T01:54:33;99451.03;;;4.14;100.00
7888;BME280;3989;48.810;9.208;2023-02-01T01:57:04;99449.13;;;4.16;100.00
7888;BME280;3989;48.810;9.208;2023-02-01T01:59:34;99407.50;;;3.97;100.00
7888;BME280;3989;48.810;9.208;2023-02-01T02:02:02;99380.25;;;3.86;100.00
7888;BME280;3989;48.810;9.208;2023-02-01T02:04:29;99378.22;;;3.89;100.00
7888;BME280;3989;48.810;9.208;2023-02-01T02:06:59;99394.41;;;3.96;100.00
7888;BME280;3989;48.810;9.208;2023-02-01T02:09:27;99442.00;;;4.28;100.00
7888;BME280;3989;48.810;9.208;2023-02-01T02:11:54;99443.69;;;4.29;100.00
7888;BME280;3989;48.810;9.208;2023-02-01T02:14:23;99438.41;;;4.29;100.00
7888;BME280;3989;48.810;9.208;2023-02-01T02:17:00;99442.88;;;4.28;100.00
7888;BME280;3989;48.810;9.208;2023-02-01T02:22:54;99441.75;;;4.31;100.00
7888;BME280;3989;48.810;9.208;2023-02-01T02:25:34;99429.53;;;4.30;100.00
7888;BME280;3989;48.810;9.208;2023-02-01T02:28:18;99377.47;;;3.98;100.00
7888;BME280;3989;48.810;9.208;2023-02-01T02:31:12;99390.06;;;4.06;100.00
7888;BME280;3989;48.810;9.208;2023-02-01T02:34:03;99430.09;;;4.33;100.00
7888;BME280;3989;48.810;9.208;2023-02-01T02:36:39;99428.44;;;4.32;100.00
7888;BME280;3989;48.810;9.208;2023-02-01T02:39:16;99424.00;;;4.33;100.00
7888;BME280;3989;48.810;9.208;2023-02-01T02:41:51;99415.00;;;4.24;100.00
7888;BME280;3989;48.810;9.208;2023-02-01T02:44:45;99384.19;;;4.13;100.00
7888;BME280;3989;48.810;9.208;2023-02-01T02:47:34;99414.84;;;4.37;100.00
7888;BME280;3989;48.810;9.208;2023-02-01T02:50:13;99418.22;;;4.39;100.00
7888;BME280;3989;48.810;9.208;2023-02-01T02:53:03;99414.03;;;4.36;100.00
7888;BME280;3989;48.810;9.208;2023-02-01T02:55:52;99385.81;;;4.26;100.00
7888;BME280;3989;48.810;9.208;2023-02-01T02:58:32;99391.81;;;4.28;100.00
7888;BME280;3989;48.810;9.208;2023-02-01T03:01:17;99407.66;;;4.39;100.00
7888;BME280;3989;48.810;9.208;2023-02-01T03:04:01;99408.59;;;4.38;100.00
7888;BME280;3989;48.810;9.208;2023-02-01T03:06:36;99398.41;;;4.33;100.00
7888;BME280;3989;48.810;9.208;2023-02-01T03:09:09;99410.88;;;4.42;100.00
7888;BME280;3989;48.810;9.208;2023-02-01T03:11:38;99401.03;;;4.33;100.00
7888;BME280;3989;48.810;9.208;2023-02-01T03:14:25;99414.59;;;4.40;100.00
7888;BME280;3989;48.810;9.208;2023-02-01T03:16:58;99411.94;;;4.40;100.00
7888;BME280;3989;48.810;9.208;2023-02-01T03:19:29;99417.13;;;4.41;100.00
7888;BME280;3989;48.810;9.208;2023-02-01T03:22:01;99390.25;;;4.36;100.00
7888;BME280;3989;48.810;9.208;2023-02-01T03:24:31;99368.03;;;4.28;100.00
7888;BME280;3989;48.810;9.208;2023-02-01T03:27:02;99369.31;;;4.33;100.00
7888;BME280;3989;48.810;9.208;2023-02-01T03:29:37;99363.34;;;4.31;100.00
7888;BME280;3989;48.810;9.208;2023-02-01T03:32:06;99352.06;;;4.29;100.00
7888;BME280;3989;48.810;9.208;2023-02-01T03:34:34;99348.59;;;4.29;100.00
7888;BME280;3989;48.810;9.208;2023-02-01T03:37:04;99354.81;;;4.28;100.00
7888;BME280;3989;48.810;9.208;2023-02-01T03:39:35;99343.41;;;4.27;100.00
7888;BME280;3989;48.810;9.208;2023-02-01T03:42:04;99340.19;;;4.23;100.00
7888;BME280;3989;48.810;9.208;2023-02-01T03:44:35;99356.63;;;4.27;100.00
7888;BME280;3989;48.810;9.208;2023-02-01T03:47:06;99345.34;;;4.25;100.00
7888;BME280;3989;48.810;9.208;2023-02-01T03:49:37;99336.84;;;4.21;100.00
7888;BME280;3989;48.810;9.208;2023-02-01T03:52:10;99349.09;;;4.22;100.00
7888;BME280;3989;48.810;9.208;2023-02-01T03:54:38;99331.47;;;4.12;100.00
7888;BME280;3989;48.810;9.208;2023-02-01T03:57:08;99366.22;;;4.28;100.00
7888;BME280;3989;48.810;9.208;2023-02-01T03:59:39;99351.34;;;4.27;100.00
7888;BME280;3989;48.810;9.208;2023-02-01T04:02:05;99345.47;;;4.23;100.00
7888;BME280;3989;48.810;9.208;2023-02-01T04:04:33;99356.13;;;4.33;100.00
7888;BME280;3989;48.810;9.208;2023-02-01T04:07:00;99366.81;;;4.32;100.00
7888;BME280;3989;48.810;9.208;2023-02-01T04:09:28;99359.25;;;4.27;100.00
7888;BME280;3989;48.810;9.208;2023-02-01T04:11:54;99360.94;;;4.28;100.00
7888;BME280;3989;48.810;9.208;2023-02-01T04:14:21;99356.03;;;4.23;100.00
7888;BME280;3989;48.810;9.208;2023-02-01T04:16:47;99356.78;;;4.14;100.00
7888;BME280;3989;48.810;9.208;2023-02-01T04:19:14;99374.53;;;4.23;100.00
7888;BME280;3989;48.810;9.208;2023-02-01T04:21:40;99373.47;;;4.26;100.00
7888;BME280;3989;48.810;9.208;2023-02-01T04:24:07;99378.59;;;4.28;100.00
7888;BME280;3989;48.810;9.208;2023-02-01T04:26:35;99365.44;;;4.16;100.00
7888;BME280;3989;48.810;9.208;2023-02-01T04:29:01;99366.59;;;4.23;100.00
7888;BME280;3989;48.810;9.208;2023-02-01T04:31:28;99333.66;;;4.07;100.00
7888;BME280;3989;48.810;9.208;2023-02-01T04:33:55;99348.34;;;4.20;100.00
7888;BME280;3989;48.810;9.208;2023-02-01T04:36:23;99352.22;;;4.16;100.00
7888;BME280;3989;48.810;9.208;2023-02-01T04:38:50;99354.53;;;4.10;100.00
7888;BME280;3989;48.810;9.208;2023-02-01T04:41:17;99316.03;;;3.85;100.00
7888;BME280;3989;48.810;9.208;2023-02-01T04:43:45;99343.03;;;4.00;100.00
7888;BME280;3989;48.810;9.208;2023-02-01T04:46:12;99334.13;;;4.01;100.00
7888;BME280;3989;48.810;9.208;2023-02-01T04:48:39;99352.00;;;4.08;100.00
7888;BME280;3989;48.810;9.208;2023-02-01T04:51:05;99353.44;;;4.12;100.00
7888;BME280;3989;48.810;9.208;2023-02-01T04:53:32;99350.44;;;4.06;100.00
7888;BME280;3989;48.810;9.208;2023-02-01T04:55:59;99358.56;;;4.14;100.00
7888;BME280;3989;48.810;9.208;2023-02-01T04:58:25;99349.09;;;4.22;100.00
7888;BME280;3989;48.810;9.208;2023-02-01T05:00:53;99299.56;;;4.04;100.00
7888;BME280;3989;48.810;9.208;2023-02-01T05:03:20;99334.81;;;4.14;100.00
7888;BME280;3989;48.810;9.208;2023-02-01T05:05:47;99319.09;;;4.12;100.00
7888;BME280;3989;48.810;9.208;2023-02-01T05:08:13;99352.56;;;4.23;100.00
7888;BME280;3989;48.810;9.208;2023-02-01T05:10:40;99340.22;;;4.12;100.00
7888;BME280;3989;48.810;9.208;2023-02-01T05:13:07;99352.09;;;4.18;100.00
7888;BME280;3989;48.810;9.208;2023-02-01T05:15:51;99361.53;;;4.32;100.00
7888;BME280;3989;48.810;9.208;2023-02-01T05:18:19;99361.19;;;4.36;100.00
7888;BME280;3989;48.810;9.208;2023-02-01T05:20:45;99365.38;;;4.39;100.00
7888;BME280;3989;48.810;9.208;2023-02-01T05:23:12;99361.38;;;4.44;100.00
7888;BME280;3989;48.810;9.208;2023-02-01T05:25:38;99362.91;;;4.47;100.00
7888;BME280;3989;48.810;9.208;2023-02-01T05:28:05;99357.38;;;4.50;100.00
7888;BME280;3989;48.810;9.208;2023-02-01T05:30:32;99354.75;;;4.50;100.00
7888;BME280;3989;48.810;9.208;2023-02-01T05:33:00;99355.72;;;4.49;100.00
7888;BME280;3989;48.810;9.208;2023-02-01T05:35:28;99346.94;;;4.48;100.00
7888;BME280;3989;48.810;9.208;2023-02-01T05:37:55;99334.69;;;4.47;100.00
7888;BME280;3989;48.810;9.208;2023-02-01T05:40:22;99372.00;;;4.65;100.00
7888;BME280;3989;48.810;9.208;2023-02-01T05:42:49;99365.59;;;4.67;100.00
7888;BME280;3989;48.810;9.208;2023-02-01T05:45:15;99370.75;;;4.69;100.00
7888;BME280;3989;48.810;9.208;2023-02-01T05:47:42;99372.31;;;4.71;100.00
7888;BME280;3989;48.810;9.208;2023-02-01T05:50:09;99373.97;;;4.72;100.00
7888;BME280;3989;48.810;9.208;2023-02-01T05:52:37;99344.25;;;4.59;100.00
7888;BME280;3989;48.810;9.208;2023-02-01T05:55:04;99364.66;;;4.68;100.00
7888;BME280;3989;48.810;9.208;2023-02-01T05:57:31;99368.09;;;4.69;100.00
7888;BME280;3989;48.810;9.208;2023-02-01T05:59:57;99373.41;;;4.69;100.00
7888;BME280;3989;48.810;9.208;2023-02-01T06:02:24;99349.44;;;4.50;100.00
7888;BME280;3989;48.810;9.208;2023-02-01T06:04:50;99367.59;;;4.54;100.00
7888;BME280;3989;48.810;9.208;2023-02-01T06:07:17;99364.59;;;4.48;100.00
7888;BME280;3989;48.810;9.208;2023-02-01T06:09:45;99363.44;;;4.41;100.00
7888;BME280;3989;48.810;9.208;2023-02-01T06:12:12;99258.63;;;3.66;100.00
7888;BME280;3989;48.810;9.208;2023-02-01T06:14:39;99091.06;;;2.86;100.00
7888;BME280;3989;48.810;9.208;2023-02-01T06:17:08;99239.69;;;3.61;100.00
7888;BME280;3989;48.810;9.208;2023-02-01T06:19:35;99360.69;;;4.31;100.00
7888;BME280;3989;48.810;9.208;2023-02-01T06:22:02;99099.22;;;2.72;100.00
7888;BME280;3989;48.810;9.208;2023-02-01T06:24:31;99317.41;;;4.11;100.00
7888;BME280;3989;48.810;9.208;2023-02-01T06:26:59;99270.97;;;3.77;100.00
7888;BME280;3989;48.810;9.208;2023-02-01T06:29:26;99366.66;;;4.44;100.00
7888;BME280;3989;48.810;9.208;2023-02-01T06:31:58;99374.47;;;4.46;100.00
7888;BME280;3989;48.810;9.208;2023-02-01T06:34:25;99117.28;;;2.88;100.00
7888;BME280;3989;48.810;9.208;2023-02-01T06:36:52;99404.69;;;4.53;100.00
7888;BME280;3989;48.810;9.208;2023-02-01T06:39:27;99306.22;;;4.19;100.00
7888;BME280;3989;48.810;9.208;2023-02-01T06:42:14;99233.06;;;3.67;100.00
7888;BME280;3989;48.810;9.208;2023-02-01T06:44:41;99182.94;;;3.56;100.00
7888;BME280;3989;48.810;9.208;2023-02-01T06:47:08;99244.97;;;3.93;100.00
7888;BME280;3989;48.810;9.208;2023-02-01T06:49:36;99251.44;;;4.00;100.00
7888;BME280;3989;48.810;9.208;2023-02-01T06:52:03;99173.72;;;3.50;100.00
7888;BME280;3989;48.810;9.208;2023-02-01T06:54:39;99154.81;;;3.45;100.00
7888;BME280;3989;48.810;9.208;2023-02-01T06:57:06;99264.25;;;4.05;100.00
7888;BME280;3989;48.810;9.208;2023-02-01T07:02:53;99038.16;;;2.67;100.00
7888;BME280;3989;48.810;9.208;2023-02-01T07:06:06;99408.84;;;4.78;100.00
7888;BME280;3989;48.810;9.208;2023-02-01T07:08:38;99235.53;;;3.80;100.00
7888;BME280;3989;48.810;9.208;2023-02-01T07:11:06;99236.28;;;3.70;100.00
7888;BME280;3989;48.810;9.208;2023-02-01T07:13:40;99296.50;;;4.19;100.00
7888;BME280;3989;48.810;9.208;2023-02-01T07:16:13;99305.50;;;4.17;100.00
7888;BME280;3989;48.810;9.208;2023-02-01T07:18:42;99229.75;;;3.86;100.00
7888;BME280;3989;48.810;9.208;2023-02-01T07:21:09;99421.00;;;5.01;100.00
7888;BME280;3989;48.810;9.208;2023-02-01T07:23:37;99432.97;;;5.05;100.00
7888;BME280;3989;48.810;9.208;2023-02-01T07:26:09;99219.41;;;3.94;100.00
7888;BME280;3989;48.810;9.208;2023-02-01T07:28:40;99415.03;;;5.08;100.00
7888;BME280;3989;48.810;9.208;2023-02-01T07:31:15;99408.78;;;5.09;100.00
7888;BME280;3989;48.810;9.208;2023-02-01T07:33:49;99421.50;;;5.15;100.00
7888;BME280;3989;48.810;9.208;2023-02-01T07:36:24;99421.38;;;5.17;100.00
7888;BME280;3989;48.810;9.208;2023-02-01T07:38:57;99383.94;;;4.80;100.00
7888;BME280;3989;48.810;9.208;2023-02-01T07:41:24;99435.88;;;5.22;100.00
7888;BME280;3989;48.810;9.208;2023-02-01T07:43:55;99435.63;;;5.25;100.00
7888;BME280;3989;48.810;9.208;2023-02-01T07:46:23;99158.31;;;3.66;100.00
7888;BME280;3989;48.810;9.208;2023-02-01T07:48:53;99428.84;;;5.33;100.00
7888;BME280;3989;48.810;9.208;2023-02-01T07:51:20;99412.72;;;5.36;100.00
7888;BME280;3989;48.810;9.208;2023-02-01T07:53:50;99431.16;;;5.47;100.00
7888;BME280;3989;48.810;9.208;2023-02-01T07:56:19;99206.03;;;4.27;100.00
7888;BME280;3989;48.810;9.208;2023-02-01T07:58:48;99436.66;;;5.55;100.00
7888;BME280;3989;48.810;9.208;2023-02-01T08:01:20;99290.59;;;4.89;100.00
7888;BME280;3989;48.810;9.208;2023-02-01T08:03:46;99249.41;;;4.66;100.00
7888;BME280;3989;48.810;9.208;2023-02-01T08:06:14;99409.03;;;5.78;100.00
7888;BME280;3989;48.810;9.208;2023-02-01T08:08:41;99433.38;;;5.93;100.00
7888;BME280;3989;48.810;9.208;2023-02-01T08:11:12;99402.44;;;6.03;100.00
7888;BME280;3989;48.810;9.208;2023-02-01T08:13:40;99401.50;;;6.13;100.00
7888;BME280;3989;48.810;9.208;2023-02-01T08:16:10;99380.88;;;6.17;100.00
7888;BME280;3989;48.810;9.208;2023-02-01T08:18:52;99233.63;;;5.15;100.00
7888;BME280;3989;48.810;9.208;2023-02-01T08:21:26;99237.09;;;5.06;100.00
7888;BME280;3989;48.810;9.208;2023-02-01T08:24:06;99409.91;;;6.28;100.00
7888;BME280;3989;48.810;9.208;2023-02-01T08:26:39;99245.13;;;5.35;100.00
7888;BME280;3989;48.810;9.208;2023-02-01T08:29:07;99418.75;;;6.57;100.00
7888;BME280;3989;48.810;9.208;2023-02-01T08:31:37;99125.69;;;5.00;100.00
7888;BME280;3989;48.810;9.208;2023-02-01T08:34:08;99411.75;;;6.85;100.00
7888;BME280;3989;48.810;9.208;2023-02-01T08:36:42;99428.22;;;6.98;100.00
7888;BME280;3989;48.810;9.208;2023-02-01T08:39:09;99444.16;;;6.98;100.00
7888;BME280;3989;48.810;9.208;2023-02-01T08:41:37;99244.44;;;5.92;100.00
7888;BME280;3989;48.810;9.208;2023-02-01T08:44:04;99117.94;;;5.27;100.00
7888;BME280;3989;48.810;9.208;2023-02-01T08:46:33;99287.69;;;6.41;100.00
7888;BME280;3989;48.810;9.208;2023-02-01T08:49:00;99441.50;;;7.17;100.00
7888;BME280;3989;48.810;9.208;2023-02-01T08:51:27;99296.63;;;6.40;100.00
7888;BME280;3989;48.810;9.208;2023-02-01T08:53:57;99443.47;;;7.15;100.00
7888;BME280;3989;48.810;9.208;2023-02-01T08:56:29;99267.31;;;6.03;100.00
7888;BME280;3989;48.810;9.208;2023-02-01T08:58:56;99206.72;;;5.60;100.00
7888;BME280;3989;48.810;9.208;2023-02-01T09:01:23;99441.78;;;6.95;100.00
7888;BME280;3989;48.810;9.208;2023-02-01T09:03:50;99256.50;;;5.85;100.00
7888;BME280;3989;48.810;9.208;2023-02-01T09:06:26;99344.47;;;6.28;100.00
7888;BME280;3989;48.810;9.208;2023-02-01T09:08:54;99327.84;;;5.98;100.00
7888;BME280;3989;48.810;9.208;2023-02-01T09:11:22;99295.13;;;5.78;100.00
7888;BME280;3989;48.810;9.208;2023-02-01T09:13:54;99445.69;;;6.62;100.00
7888;BME280;3989;48.810;9.208;2023-02-01T09:16:26;99177.44;;;4.93;100.00
7888;BME280;3989;48.810;9.208;2023-02-01T09:18:53;99351.44;;;5.80;100.00
7888;BME280;3989;48.810;9.208;2023-02-01T09:21:21;99474.81;;;6.53;100.00
7888;BME280;3989;48.810;9.208;2023-02-01T09:23:50;99479.31;;;6.52;100.00
7888;BME280;3989;48.810;9.208;2023-02-01T09:26:21;99441.63;;;6.49;100.00
7888;BME280;3989;48.810;9.208;2023-02-01T09:28:48;99377.66;;;6.13;100.00
7888;BME280;3989;48.810;9.208;2023-02-01T09:31:16;99308.84;;;5.93;100.00
7888;BME280;3989;48.810;9.208;2023-02-01T09:33:44;99397.25;;;6.70;100.00
7888;BME280;3989;48.810;9.208;2023-02-01T09:36:13;99300.09;;;6.21;100.00
7888;BME280;3989;48.810;9.208;2023-02-01T09:38:42;99459.53;;;7.23;100.00
7888;BME280;3989;48.810;9.208;2023-02-01T09:41:32;99372.53;;;6.79;100.00
7888;BME280;3989;48.810;9.208;2023-02-01T09:44:09;99477.84;;;7.26;100.00
7888;BME280;3989;48.810;9.208;2023-02-01T09:46:50;99384.25;;;6.57;100.00
7888;BME280;3989;48.810;9.208;2023-02-01T09:49:26;99284.72;;;5.96;100.00
7888;BME280;3989;48.810;9.208;2023-02-01T09:52:12;99475.75;;;7.20;100.00
7888;BME280;3989;48.810;9.208;2023-02-01T09:54:49;99409.25;;;6.64;100.00
7888;BME280;3989;48.810;9.208;2023-02-01T09:57:25;99495.00;;;7.22;100.00
7888;BME280;3989;48.810;9.208;2023-02-01T09:59:57;99184.84;;;5.58;100.00
7888;BME280;3989;48.810;9.208;2023-02-01T10:02:28;99476.13;;;7.35;100.00
7888;BME280;3989;48.810;9.208;2023-02-01T10:04:57;99293.81;;;6.31;100.00
7888;BME280;3989;48.810;9.208;2023-02-01T10:07:31;99199.78;;;5.59;100.00
7888;BME280;3989;48.810;9.208;2023-02-01T10:10:09;99504.09;;;7.20;100.00
7888;BME280;3989;48.810;9.208;2023-02-01T10:16:09;99328.56;;;6.28;100.00
7888;BME280;3989;48.810;9.208;2023-02-01T10:19:00;99473.63;;;7.05;100.00
7888;BME280;3989;48.810;9.208;2023-02-01T10:21:44;99507.59;;;7.20;100.00
7888;BME280;3989;48.810;9.208;2023-02-01T10:24:40;99219.56;;;5.55;100.00
7888;BME280;3989;48.810;9.208;2023-02-01T10:27:17;99416.81;;;6.78;100.00
7888;BME280;3989;48.810;9.208;2023-02-01T10:29:52;99531.91;;;7.45;100.00
7888;BME280;3989;48.810;9.208;2023-02-01T10:32:22;99507.28;;;7.62;100.00
7888;BME280;3989;48.810;9.208;2023-02-01T10:34:56;99516.78;;;7.64;100.00
7888;BME280;3989;48.810;9.208;2023-02-01T10:37:27;99494.56;;;7.56;100.00
7888;BME280;3989;48.810;9.208;2023-02-01T10:39:55;99494.13;;;7.60;100.00
7888;BME280;3989;48.810;9.208;2023-02-01T10:42:25;99443.19;;;7.18;100.00
7888;BME280;3989;48.810;9.208;2023-02-01T10:44:56;99338.22;;;6.39;100.00
7888;BME280;3989;48.810;9.208;2023-02-01T10:47:25;99426.59;;;6.88;100.00
7888;BME280;3989;48.810;9.208;2023-02-01T10:49:57;99468.88;;;7.27;100.00
7888;BME280;3989;48.810;9.208;2023-02-01T10:52:36;99308.19;;;6.48;100.00
7888;BME280;3989;48.810;9.208;2023-02-01T10:55:32;99489.66;;;7.61;100.00
7888;BME280;3989;48.810;9.208;2023-02-01T10:58:01;99484.91;;;7.55;100.00
7888;BME280;3989;48.810;9.208;2023-02-01T11:00:38;99451.25;;;7.46;99.95
7888;BME280;3989;48.810;9.208;2023-02-01T11:03:31;99479.72;;;7.63;99.21
7888;BME280;3989;48.810;9.208;2023-02-01T11:05:58;99378.94;;;6.96;97.46
7888;BME280;3989;48.810;9.208;2023-02-01T11:08:29;99429.03;;;7.27;96.80
7888;BME280;3989;48.810;9.208;2023-02-01T11:11:06;99488.97;;;7.59;97.81
7888;BME280;3989;48.810;9.208;2023-02-01T11:13:38;99307.53;;;6.46;98.33
7888;BME280;3989;48.810;9.208;2023-02-01T11:16:11;99362.19;;;6.85;97.34
7888;BME280;3989;48.810;9.208;2023-02-01T11:18:53;99478.22;;;7.51;98.33
7888;BME280;3989;48.810;9.208;2023-02-01T11:21:20;99302.91;;;6.39;97.99
7888;BME280;3989;48.810;9.208;2023-02-01T11:23:47;99491.22;;;7.44;98.23
7888;BME280;3989;48.810;9.208;2023-02-01T11:26:38;99190.13;;;5.48;97.45
7888;BME280;3989;48.810;9.208;2023-02-01T11:29:12;99484.13;;;7.25;98.83
7888;BME280;3989;48.810;9.208;2023-02-01T11:31:50;99208.81;;;5.56;98.64
7888;BME280;3989;48.810;9.208;2023-02-01T11:34:20;99375.47;;;6.57;98.24
7888;BME280;3989;48.810;9.208;2023-02-01T11:36:49;99173.81;;;5.53;97.52
7888;BME280;3989;48.810;9.208;2023-02-01T11:39:24;99153.47;;;5.44;95.95
7888;BME280;3989;48.810;9.208;2023-02-01T11:41:59;99413.88;;;7.10;95.81
7888;BME280;3989;48.810;9.208;2023-02-01T11:44:35;99159.34;;;5.47;93.51
7888;BME280;3989;48.810;9.208;2023-02-01T11:47:25;99362.06;;;6.87;91.68
7888;BME280;3989;48.810;9.208;2023-02-01T11:49:53;99355.78;;;6.98;89.61
7888;BME280;3989;48.810;9.208;2023-02-01T11:52:41;99162.72;;;5.68;90.16
7888;BME280;3989;48.810;9.208;2023-02-01T11:55:31;99263.41;;;6.45;89.85
7888;BME280;3989;48.810;9.208;2023-02-01T11:58:22;99232.53;;;6.63;83.85
7888;BME280;3989;48.810;9.208;2023-02-01T12:01:05;99432.28;;;7.77;81.72
7888;BME280;3989;48.810;9.208;2023-02-01T12:04:03;99270.34;;;6.75;80.14
7888;BME280;3989;48.810;9.208;2023-02-01T12:06:46;99281.50;;;6.88;80.04
7888;BME280;3989;48.810;9.208;2023-02-01T12:09:28;99328.09;;;7.00;81.41
7888;BME280;3989;48.810;9.208;2023-02-01T12:12:04;99305.91;;;6.82;80.46
7888;BME280;3989;48.810;9.208;2023-02-01T12:15:04;99429.03;;;7.37;79.93
7888;BME280;3989;48.810;9.208;2023-02-01T12:17:44;99132.31;;;5.53;82.84
7888;BME280;3989;48.810;9.208;2023-02-01T12:20:34;99314.75;;;6.63;82.23
7888;BME280;3989;48.810;9.208;2023-02-01T12:23:20;99402.94;;;7.23;83.50
7888;BME280;3989;48.810;9.208;2023-02-01T12:26:11;99424.88;;;7.25;86.08
7888;BME280;3989;48.810;9.208;2023-02-01T12:29:11;99409.91;;;7.24;83.68
7888;BME280;3989;48.810;9.208;2023-02-01T12:32:00;99413.84;;;7.29;82.50
7888;BME280;3989;48.810;9.208;2023-02-01T12:34:50;99227.28;;;6.15;83.24
7888;BME280;3989;48.810;9.208;2023-02-01T12:37:31;99317.41;;;6.63;86.06
7888;BME280;3989;48.810;9.208;2023-02-01T12:40:10;99455.03;;;7.24;86.50
7888;BME280;3989;48.810;9.208;2023-02-01T12:42:48;99394.28;;;7.02;88.57
7888;BME280;3989;48.810;9.208;2023-02-01T12:45:32;99230.31;;;5.82;93.86
7888;BME280;3989;48.810;9.208;2023-02-01T12:48:13;99263.47;;;5.67;100.00
7888;BME280;3989;48.810;9.208;2023-02-01T12:50:47;99428.50;;;6.57;100.00
7888;BME280;3989;48.810;9.208;2023-02-01T12:53:19;99322.13;;;6.02;100.00
7888;BME280;3989;48.810;9.208;2023-02-01T12:55:55;99426.72;;;6.76;100.00
7888;BME280;3989;48.810;9.208;2023-02-01T12:58:26;99371.28;;;6.54;100.00
7888;BME280;3989;48.810;9.208;2023-02-01T13:01:00;99308.03;;;6.11;100.00
7888;BME280;3989;48.810;9.208;2023-02-01T13:03:37;99245.22;;;5.73;100.00
7888;BME280;3989;48.810;9.208;2023-02-01T13:06:08;99429.22;;;6.68;100.00
7888;BME280;3989;48.810;9.208;2023-02-01T13:08:46;99251.59;;;5.52;100.00
7888;BME280;3989;48.810;9.208;2023-02-01T13:11:31;99175.69;;;4.72;100.00
7888;BME280;3989;48.810;9.208;2023-02-01T13:14:03;99426.31;;;5.82;100.00
7888;BME280;3989;48.810;9.208;2023-02-01T13:16:35;99400.50;;;5.74;100.00
7888;BME280;3989;48.810;9.208;2023-02-01T13:19:13;99258.16;;;4.87;100.00
7888;BME280;3989;48.810;9.208;2023-02-01T13:21:48;99424.13;;;6.27;100.00
7888;BME280;3989;48.810;9.208;2023-02-01T13:24:30;99393.06;;;6.58;100.00
7888;BME280;3989;48.810;9.208;2023-02-01T13:26:58;99246.03;;;5.64;100.00
7888;BME280;3989;48.810;9.208;2023-02-01T13:29:25;99216.91;;;5.64;100.00
7888;BME280;3989;48.810;9.208;2023-02-01T13:32:04;99306.22;;;6.21;100.00
7888;BME280;3989;48.810;9.208;2023-02-01T13:34:49;99295.78;;;6.20;100.00
7888;BME280;3989;48.810;9.208;2023-02-01T13:37:31;99402.44;;;6.81;100.00
7888;BME280;3989;48.810;9.208;2023-02-01T13:40:16;99387.91;;;6.95;100.00
7888;BME280;3989;48.810;9.208;2023-02-01T13:42:50;99282.09;;;6.34;100.00
7888;BME280;3989;48.810;9.208;2023-02-01T13:45:21;99262.03;;;6.22;100.00
7888;BME280;3989;48.810;9.208;2023-02-01T13:47:56;99403.09;;;7.02;100.00
7888;BME280;3989;48.810;9.208;2023-02-01T13:50:26;99286.72;;;6.42;100.00
7888;BME280;3989;48.810;9.208;2023-02-01T13:52:55;99209.00;;;5.83;100.00
7888;BME280;3989;48.810;9.208;2023-02-01T13:55:29;99279.44;;;6.24;100.00
7888;BME280;3989;48.810;9.208;2023-02-01T13:58:17;99375.63;;;6.55;100.00
7888;BME280;3989;48.810;9.208;2023-02-01T14:00:46;99193.91;;;5.46;100.00
7888;BME280;3989;48.810;9.208;2023-02-01T14:03:16;99210.69;;;5.25;100.00